Pagrindinis puslapis
METAR-TAF:

METAR-TAF

Oro uostai :

Jubail, Saudo Arabija

platuma: 27-02-20N, ilguma: 49-24-18E, Aukštis: 8 m

Dabartinis oras

Ataskaita buvo paskelbta 44 minutes, ne 00:00 UTC
Vėjas 8 kt iš Vakarų/Pietvakarių
Temperatūra 25°C
Drėgmė 47%
Slėgis 1004 hPa
Matomumas 10 km arba daugiau
nėra debesų žemiau 1500 m ir nėra kamuolinių lietaus debesų

METAR: OEJB 240000Z AUTO 25008KT CAVOK 25/13 Q1004 NOSIG

Laikas: 03:44 (00:44 UTC)


TAF: trūkstamas

Orai ataskaitas ir orų prognozės (METAR, TAF).

turimą stotys yra geltonos ir raudonos taškus žemėlapyje.

Perkelti pele per norėdami pamatyti stoties vardą.

Tada spustelėkite, norėdami matyti oro stebėjimo ir prognozės.

Norėdami pakeisti žemėlapį: spustelėkite ant žalios mygtukų su juodo kryžiaus žemyn,; žalią mygtuką su brūkšneliu, jei norite nutolinti; arba žalių rodyklių gretimoms žemėlapius.


METAR-TAF: